Uni Klinik Heliport LOIU

Flugplatz Daten

Name: Uni Klinik Heliport

Ident: LOIU

Lat: 47,26104355

Long: 11,38479805

Platzhöhe: 2057 ft

IataCode:

City: Innsbruck

Metar

2019/07/10 21:30
LEBB 102130Z 00000KT CAVOK 19/17 Q1017 RMK ADIOS LOIU

Taf

Gewünschte Webcam nicht vorhanden? Dann fügen Sie eine hinzu. Sie wird dann so schnell wie möglich freigeschaltet
Url: Title: